Time;durP1;ratioP1;P1;durP2;ratioP2;P2;SDS_P1;SDS_P2;PMS_P1;PMS_P2;Temp;Humidity;BMP_temperature;BMP_pressure;BME280_temperature;BME280_humidity;BME280_pressure;Samples;Min_cycle;Max_cycle;Signal;HPM_P1;HPM_P2
2022/08/28 00:08:29;;;;;;;7.60;5.62;;;;;;;16.04;100.00;97626.00;18222899;32;20367;-58
2022/08/28 00:18:31;;;;;;;8.73;6.82;;;;;;;15.99;100.00;97623.41;18236205;32;20062;-57
2022/08/28 00:28:34;;;;;;;8.07;5.82;;;;;;;15.90;100.00;97625.22;18197424;32;20058;-58
2022/08/28 00:38:36;;;;;;;6.30;4.93;;;;;;;15.75;100.00;97620.88;18100928;32;20137;-58
2022/08/28 00:48:38;;;;;;;6.75;5.18;;;;;;;15.68;100.00;97615.84;17977128;32;20527;-58
2022/08/28 00:58:43;;;;;;;6.15;4.93;;;;;;;15.63;100.00;97620.59;17964657;33;20113;-58
2022/08/28 01:08:48;;;;;;;6.50;4.03;;;;;;;15.54;100.00;97620.47;17939078;32;20071;-58
2022/08/28 01:18:52;;;;;;;6.72;5.30;;;;;;;15.49;100.00;97617.88;17994947;32;20100;-58
2022/08/28 01:28:59;;;;;;;6.07;4.40;;;;;;;15.42;100.00;97623.72;18098835;32;20256;-58
2022/08/28 01:39:14;;;;;;;7.65;4.35;;;;;;;15.42;100.00;97607.37;18107501;32;20487;-58
2022/08/28 01:49:18;;;;;;;5.22;4.50;;;;;;;15.40;100.00;97604.97;18232077;32;20143;-58
2022/08/28 01:59:20;;;;;;;5.97;4.57;;;;;;;15.41;100.00;97605.75;18231898;32;20106;-58
2022/08/28 02:09:23;;;;;;;4.93;4.10;;;;;;;15.56;100.00;97608.16;18231133;32;20059;-58
2022/08/28 02:19:25;;;;;;;5.18;4.45;;;;;;;15.61;100.00;97603.72;18231069;32;20112;-58
2022/08/28 02:29:28;;;;;;;4.90;3.87;;;;;;;15.69;100.00;97603.00;18230591;32;20080;-58
2022/08/28 02:39:30;;;;;;;7.80;4.20;;;;;;;15.77;100.00;97607.75;18216221;32;20090;-58
2022/08/28 02:49:33;;;;;;;6.90;4.40;;;;;;;15.76;100.00;97627.97;18229722;32;20089;-58
2022/08/28 02:59:37;;;;;;;5.87;4.05;;;;;;;15.80;100.00;97614.53;18230692;32;20065;-58
2022/08/28 03:09:42;;;;;;;5.78;3.78;;;;;;;15.91;100.00;97624.91;18225971;32;20054;-58
2022/08/28 03:19:45;;;;;;;5.25;4.00;;;;;;;16.03;100.00;97609.94;18239042;32;20482;-58
2022/08/28 03:29:47;;;;;;;5.62;3.70;;;;;;;16.13;100.00;97617.91;18238557;32;20122;-58
2022/08/28 03:39:49;;;;;;;5.62;4.18;;;;;;;16.25;100.00;97629.09;18238050;32;20096;-58
2022/08/28 03:49:56;;;;;;;7.35;4.57;;;;;;;16.36;100.00;97623.37;18224147;32;20080;-58
2022/08/28 03:59:59;;;;;;;5.78;4.35;;;;;;;16.44;100.00;97630.81;18103015;32;20083;-58
2022/08/28 04:10:03;;;;;;;7.97;6.15;;;;;;;16.44;100.00;97636.28;18102364;32;20083;-58
2022/08/28 04:20:07;;;;;;;7.53;5.95;;;;;;;16.53;100.00;97628.19;18102036;32;20121;-58
2022/08/28 04:30:10;;;;;;;;;;;;;;;16.64;100.00;97629.53;18109165;32;20410;-58
2022/08/28 04:40:13;;;;;;;7.75;6.45;;;;;;;16.71;100.00;97638.09;18110641;32;19985;-58
2022/08/28 04:50:16;;;;;;;8.57;6.53;;;;;;;16.78;100.00;97645.84;18109868;32;20074;-59
2022/08/28 05:00:18;;;;;;;8.57;6.80;;;;;;;16.80;100.00;97657.28;18109548;32;20364;-59
2022/08/28 05:10:21;;;;;;;12.05;8.68;;;;;;;16.76;100.00;97654.34;18206416;32;20062;-59
2022/08/28 05:20:23;;;;;;;15.60;11.23;;;;;;;16.83;100.00;97653.09;18220193;32;20058;-58
2022/08/28 05:30:26;;;;;;;19.20;11.80;;;;;;;16.89;100.00;97657.34;18219059;32;20058;-58
2022/08/28 05:40:28;;;;;;;14.32;10.60;;;;;;;16.99;100.00;97683.59;18218727;32;20386;-59
2022/08/28 05:50:31;;;;;;;15.63;9.88;;;;;;;17.00;100.00;97698.87;18232404;32;20117;-59
2022/08/28 06:00:33;;;;;;;13.35;9.55;;;;;;;17.07;100.00;97701.97;18218302;32;20098;-58
2022/08/28 06:10:43;;;;;;;16.17;9.57;;;;;;;17.19;100.00;97707.66;18166974;32;20167;-59
2022/08/28 06:20:52;;;;;;;11.15;7.72;;;;;;;17.30;100.00;97705.47;18168666;32;20405;-59
2022/08/28 06:30:55;;;;;;;14.10;9.88;;;;;;;17.44;100.00;97719.88;18167689;32;20066;-59
2022/08/28 06:41:18;;;;;;;9.50;6.93;;;;;;;17.52;100.00;97712.81;18177367;32;20119;-59
2022/08/28 06:51:21;;;;;;;11.13;8.83;;;;;;;17.72;100.00;97718.84;18177918;32;20070;-59
2022/08/28 07:01:32;;;;;;;10.05;7.40;;;;;;;17.91;100.00;97724.91;18177403;32;20062;-59
2022/08/28 07:11:35;;;;;;;8.90;7.03;;;;;;;18.13;100.00;97728.69;18175761;32;20059;-59
2022/08/28 07:21:41;;;;;;;15.03;9.17;;;;;;;18.45;100.00;97740.31;18176617;32;20089;-59
2022/08/28 07:31:47;;;;;;;9.75;7.68;;;;;;;18.65;100.00;97749.03;18176423;32;20200;-59
2022/08/28 07:41:50;;;;;;;10.77;7.30;;;;;;;18.89;100.00;97757.63;18175794;32;20073;-59
2022/08/28 07:51:53;;;;;;;7.82;6.53;;;;;;;19.07;99.67;97763.09;18174466;32;20054;-60
2022/08/28 08:01:56;;;;;;;8.87;6.93;;;;;;;19.28;99.18;97766.78;18174527;32;20077;-59
2022/08/28 08:11:59;;;;;;;11.17;8.27;;;;;;;19.50;98.43;97775.13;18233598;32;20063;-59
2022/08/28 08:22:01;;;;;;;9.70;7.57;;;;;;;19.78;94.15;97787.31;18222083;32;20542;-59
2022/08/28 08:32:08;;;;;;;8.90;6.77;;;;;;;19.95;90.44;97786.47;18222666;32;20095;-59
2022/08/28 08:42:24;;;;;;;8.38;6.50;;;;;;;20.09;86.45;97788.19;18222206;32;20430;-59
2022/08/28 08:52:39;;;;;;;9.00;7.35;;;;;;;20.52;88.87;97792.66;18221624;32;20051;-59
2022/08/28 09:02:49;;;;;;;6.50;5.87;;;;;;;20.76;83.93;97794.78;18220080;32;20058;-59
2022/08/28 09:13:20;;;;;;;9.60;7.22;;;;;;;21.19;84.73;97808.53;18220575;32;20094;-59
2022/08/28 09:23:24;;;;;;;7.35;6.10;;;;;;;21.61;82.21;97803.78;18220115;32;20476;-59
2022/08/28 09:33:33;;;;;;;8.73;6.22;;;;;;;22.10;80.01;97805.00;18233206;32;20074;-59
2022/08/28 09:43:37;;;;;;;7.55;5.97;;;;;;;22.38;77.77;97801.59;18219070;32;20066;-59
2022/08/28 09:53:56;;;;;;;6.45;5.47;;;;;;;22.79;76.30;97805.22;18206396;32;20405;-60
2022/08/28 10:04:26;;;;;;;8.18;5.57;;;;;;;23.18;73.31;97811.13;18205613;32;20062;-60
2022/08/28 10:14:43;;;;;;;8.20;6.03;;;;;;;23.20;73.74;97805.25;18238989;32;20117;-60
2022/08/28 10:25:17;;;;;;;6.87;5.60;;;;;;;23.21;72.73;97801.34;18228270;32;20055;-60
2022/08/28 10:35:37;;;;;;;8.25;5.57;;;;;;;23.67;72.19;97802.62;18240959;32;20070;-60
2022/08/28 10:45:41;;;;;;;7.05;5.25;;;;;;;24.21;66.56;97805.19;18240949;32;20486;-60
2022/08/28 10:55:58;;;;;;;5.43;4.75;;;;;;;23.61;63.46;97795.78;18226691;32;20098;-59
2022/08/28 11:06:24;;;;;;;6.18;4.80;;;;;;;23.15;71.01;97801.59;18239553;32;20059;-60
2022/08/28 11:16:28;;;;;;;5.75;4.40;;;;;;;22.93;71.18;97794.62;18239403;32;20139;-59
2022/08/28 11:26:56;;;;;;;8.30;5.03;;;;;;;23.52;65.88;97786.84;18224600;32;20054;-60
2022/08/28 11:37:04;;;;;;;5.10;4.60;;;;;;;24.40;67.75;97794.19;18213220;32;20118;-60
2022/08/28 11:47:32;;;;;;;6.62;4.20;;;;;;;25.34;67.78;97793.53;18238160;32;20118;-60
2022/08/28 11:58:00;;;;;;;5.57;4.40;;;;;;;25.59;58.47;97787.66;18237161;32;20066;-60
2022/08/28 12:08:03;;;;;;;4.95;4.45;;;;;;;26.42;61.65;97789.06;18236555;32;20438;-60
2022/08/28 12:18:15;;;;;;;6.82;5.25;;;;;;;27.36;57.10;97791.19;18236643;32;20107;-60
2022/08/28 12:28:45;;;;;;;7.18;5.40;;;;;;;27.62;53.87;97795.84;18236798;32;20098;-59
2022/08/28 12:38:51;;;;;;;7.30;5.97;;;;;;;26.01;58.26;97787.62;18235556;32;20110;-60
2022/08/28 12:49:00;;;;;;;8.57;7.00;;;;;;;25.34;60.18;97783.25;18221763;32;20062;-60
2022/08/28 12:59:23;;;;;;;7.62;5.72;;;;;;;25.02;58.69;97777.84;18234799;32;20067;-60
2022/08/28 13:09:29;;;;;;;6.93;6.22;;;;;;;25.19;61.33;97770.28;18037854;32;20071;-60
2022/08/28 13:19:34;;;;;;;8.77;5.62;;;;;;;25.35;56.43;97762.72;18025420;32;20067;-60
2022/08/28 13:30:07;;;;;;;9.75;5.03;;;;;;;25.94;62.57;97743.19;18037736;32;20096;-60
2022/08/28 13:40:11;;;;;;;6.00;4.70;;;;;;;27.18;51.42;97749.31;18096453;32;20470;-60
2022/08/28 13:50:37;;;;;;;7.95;5.47;;;;;;;27.72;56.80;97745.16;18105920;32;20086;-60
2022/08/28 14:00:44;;;;;;;6.25;5.00;;;;;;;28.44;53.98;97744.16;18093871;32;20391;-60
2022/08/28 14:10:48;;;;;;;5.65;4.65;;;;;;;28.40;54.13;97736.56;18200724;32;20090;-60
2022/08/28 14:20:51;;;;;;;6.45;5.00;;;;;;;28.82;54.91;97717.75;18034720;32;20096;-60
2022/08/28 14:30:55;;;;;;;8.43;4.82;;;;;;;28.79;50.60;97714.94;18034623;32;20082;-59
2022/08/28 14:40:58;;;;;;;4.82;4.37;;;;;;;28.05;46.52;97704.56;18034171;32;20088;-60
2022/08/28 14:51:03;;;;;;;4.47;3.87;;;;;;;27.73;50.07;97707.84;18062963;32;20051;-60
2022/08/28 15:01:06;;;;;;;5.65;4.40;;;;;;;27.57;51.90;97701.75;18237874;32;20351;-60
2022/08/28 15:11:13;;;;;;;4.37;3.90;;;;;;;27.32;53.80;97702.25;18239254;32;20078;-60
2022/08/28 15:21:23;;;;;;;8.38;4.53;;;;;;;26.89;53.29;97693.47;18226041;32;20085;-59
2022/08/28 15:31:27;;;;;;;6.03;4.85;;;;;;;26.60;53.29;97679.22;18238870;32;20063;-60
2022/08/28 15:41:30;;;;;;;5.28;4.25;;;;;;;26.32;56.21;97669.34;18237845;32;20113;-60
2022/08/28 15:51:33;;;;;;;5.22;4.45;;;;;;;26.45;53.80;97669.13;18224194;32;20073;-59
2022/08/28 16:01:37;;;;;;;5.57;4.32;;;;;;;26.01;56.23;97653.81;18237743;32;20343;-59
2022/08/28 16:11:42;;;;;;;5.82;4.47;;;;;;;25.75;56.63;97662.91;18172462;32;20374;-59
2022/08/28 16:21:45;;;;;;;4.37;3.95;;;;;;;25.57;58.73;97660.66;18173663;32;20115;-59
2022/08/28 16:31:48;;;;;;;5.07;4.25;;;;;;;25.48;58.77;97657.34;18172407;32;20442;-59
2022/08/28 16:41:51;;;;;;;6.32;4.53;;;;;;;25.25;61.73;97652.56;18172651;32;20058;-59
2022/08/28 16:51:54;;;;;;;7.07;4.55;;;;;;;24.94;58.15;97654.41;18088831;32;20078;-59
2022/08/28 17:01:58;;;;;;;5.50;4.62;;;;;;;25.07;59.10;97651.47;18088324;32;20074;-59
2022/08/28 17:12:01;;;;;;;6.85;4.25;;;;;;;24.92;60.41;97656.72;18075281;32;20079;-59
2022/08/28 17:32:28;;;;;;;;;;;;;;;24.01;64.94;97662.28;18108340;32;20073;-59
2022/08/28 17:42:31;;;;;;;5.53;5.03;;;;;;;23.81;65.30;97663.34;18107844;32;19950;-59
2022/08/28 17:52:34;;;;;;;;;;;;;;;23.36;64.65;97659.88;18107494;32;20071;-59
2022/08/28 18:02:38;;;;;;;;;;;;;;;23.01;71.65;97669.59;18107236;32;19951;-60
2022/08/28 18:12:46;;;;;;;6.07;4.40;;;;;;;22.55;74.57;97674.59;18225115;32;19979;-59
2022/08/28 18:22:50;;;;;;;4.95;4.45;;;;;;;22.07;77.25;97671.56;18217335;32;20063;-59
2022/08/28 18:32:53;;;;;;;6.47;4.85;;;;;;;21.63;81.19;97679.62;18222354;32;20055;-59
2022/08/28 18:43:01;;;;;;;9.05;5.28;;;;;;;21.27;82.28;97692.94;18241512;32;20086;-60
2022/08/28 18:53:04;;;;;;;7.37;5.20;;;;;;;20.96;83.84;97707.97;18227020;32;20080;-59
2022/08/28 19:03:07;;;;;;;6.93;5.40;;;;;;;20.76;84.61;97717.03;18240268;32;20363;-59
2022/08/28 19:13:11;;;;;;;7.65;5.32;;;;;;;20.74;86.41;97739.34;18225747;32;20395;-59
2022/08/28 19:23:14;;;;;;;8.75;5.45;;;;;;;20.69;86.19;97742.28;18225401;32;20062;-59
2022/08/28 19:33:19;;;;;;;6.25;5.53;;;;;;;20.47;87.78;97744.22;18238819;32;20105;-59
2022/08/28 19:43:23;;;;;;;5.75;4.93;;;;;;;20.35;86.82;97760.63;18237538;32;20074;-59
2022/08/28 19:53:44;;;;;;;5.28;4.78;;;;;;;20.10;88.82;97748.62;18226212;32;20062;-59
2022/08/28 20:03:46;;;;;;;6.75;5.50;;;;;;;19.88;89.08;97763.41;18223607;32;20062;-59
2022/08/28 20:13:57;;;;;;;6.73;4.60;;;;;;;19.68;90.06;97770.38;18237051;32;20115;-59
2022/08/28 20:24:01;;;;;;;7.15;5.45;;;;;;;19.42;90.83;97785.00;18236804;32;20058;-59
2022/08/28 20:34:04;;;;;;;5.53;4.65;;;;;;;19.19;91.85;97804.34;18236028;32;20153;-59
2022/08/28 20:44:09;;;;;;;7.78;5.82;;;;;;;18.95;92.74;97811.13;18235980;32;20434;-59
2022/08/28 20:54:12;;;;;;;7.47;5.70;;;;;;;18.75;93.75;97811.72;18235257;32;20057;-59
2022/08/28 21:04:14;;;;;;;6.60;5.60;;;;;;;18.57;94.38;97825.38;18234540;32;20367;-59
2022/08/28 21:14:17;;;;;;;8.43;6.33;;;;;;;18.40;95.25;97825.34;18234301;32;20439;-59
2022/08/28 21:24:20;;;;;;;6.83;6.13;;;;;;;18.19;95.83;97827.84;18233922;32;20374;-59
2022/08/28 21:34:23;;;;;;;9.83;7.93;;;;;;;18.02;96.59;97829.41;18219760;32;20054;-59
2022/08/28 21:44:26;;;;;;;8.75;6.75;;;;;;;17.86;97.92;97837.16;18098475;32;20075;-59
2022/08/28 21:54:29;;;;;;;8.30;5.87;;;;;;;17.74;99.11;97845.16;18097878;32;20490;-59
2022/08/28 22:04:33;;;;;;;6.05;5.30;;;;;;;17.56;99.19;97836.81;18084576;32;20108;-59
2022/08/28 22:14:37;;;;;;;6.10;5.18;;;;;;;17.39;99.46;97832.06;18092621;32;20443;-59
2022/08/28 22:24:39;;;;;;;7.23;5.10;;;;;;;17.27;100.00;97818.94;18105367;32;20093;-59
2022/08/28 22:34:44;;;;;;;6.55;5.03;;;;;;;17.13;100.00;97820.94;18092260;32;20063;-59
2022/08/28 22:44:47;;;;;;;5.72;4.57;;;;;;;17.02;100.00;97830.47;18105579;32;20144;-59
2022/08/28 22:54:49;;;;;;;6.90;5.00;;;;;;;16.87;100.00;97834.31;18104940;32;20112;-59
2022/08/28 23:04:54;;;;;;;5.57;5.07;;;;;;;16.75;100.00;97848.53;18124240;32;20094;-59
2022/08/28 23:14:57;;;;;;;6.90;4.93;;;;;;;16.64;100.00;97852.59;18094829;32;20109;-60
2022/08/28 23:24:59;;;;;;;6.75;4.90;;;;;;;16.51;100.00;97848.75;18105229;32;20070;-59
2022/08/28 23:35:03;;;;;;;5.80;4.47;;;;;;;16.40;100.00;97846.25;18092291;32;20079;-59
2022/08/28 23:45:10;;;;;;;7.25;5.07;;;;;;;16.32;100.00;97846.13;18210766;32;20192;-59
2022/08/28 23:55:14;;;;;;;6.10;4.93;;;;;;;16.21;100.00;97840.88;18237766;32;20445;-59
